createdAt,value
2019-04-11T00:00:28.734Z,69.84
2019-04-11T00:03:35.576Z,69.53
2019-04-11T00:06:41.481Z,70.72
2019-04-11T00:09:47.965Z,72.09
2019-04-11T00:12:54.886Z,69.75
2019-04-11T00:16:01.309Z,69.70
2019-04-11T00:19:09.326Z,69.25
2019-04-11T00:22:15.254Z,69.25
2019-04-11T00:25:21.082Z,69.03
2019-04-11T00:28:27.770Z,68.75
2019-04-11T00:31:34.771Z,68.41
2019-04-11T00:34:40.649Z,70.25
2019-04-11T00:37:47.405Z,70.25
2019-04-11T00:40:54.798Z,69.95
2019-04-11T00:44:00.839Z,70.18
2019-04-11T00:47:06.960Z,70.18
2019-04-11T00:50:12.876Z,70.00
2019-04-11T00:53:19.075Z,69.67
2019-04-11T00:56:26.265Z,70.19
2019-04-11T00:59:32.208Z,69.61
2019-04-11T01:02:38.186Z,70.07
2019-04-11T01:05:43.897Z,69.89
2019-04-11T01:08:49.625Z,70.02
2019-04-11T01:11:56.324Z,69.69
2019-04-11T01:15:03.169Z,69.65
2019-04-11T01:18:09.751Z,69.64
2019-04-11T01:21:17.844Z,71.02
2019-04-11T01:24:23.914Z,70.70
2019-04-11T01:27:30.401Z,70.37
2019-04-11T01:30:53.346Z,70.15
2019-04-11T01:34:00.120Z,70.86
2019-04-11T01:37:07.145Z,71.83
2019-04-11T01:40:13.779Z,72.44
2019-04-11T01:43:19.873Z,71.23
2019-04-11T01:46:26.421Z,71.31
2019-04-11T01:49:32.409Z,70.40
2019-04-11T01:52:39.347Z,71.36
2019-04-11T01:55:45.127Z,71.03
2019-04-11T01:58:51.000Z,71.54
2019-04-11T02:02:14.724Z,71.80
2019-04-11T02:05:25.213Z,71.48
2019-04-11T02:08:31.287Z,71.35
2019-04-11T02:11:37.316Z,72.43
2019-04-11T02:14:43.909Z,72.34
2019-04-11T02:17:50.822Z,73.34
2019-04-11T02:20:57.605Z,74.08
2019-04-11T02:24:15.304Z,73.34
2019-04-11T02:27:24.773Z,72.81
2019-04-11T02:30:33.908Z,72.38
2019-04-11T02:33:41.410Z,72.04
2019-04-11T02:36:49.062Z,72.34
2019-04-11T02:39:55.966Z,72.00
2019-04-11T02:43:02.476Z,71.44
2019-04-11T02:46:17.567Z,71.47
2019-04-11T02:49:16.996Z,71.94
2019-04-11T02:52:23.025Z,71.53
2019-04-11T02:55:29.487Z,70.79
2019-04-11T02:58:36.891Z,71.55
2019-04-11T03:01:44.022Z,71.17
2019-04-11T03:04:51.015Z,72.15
2019-04-11T03:07:58.416Z,71.11
2019-04-11T03:11:05.393Z,71.71
2019-04-11T03:14:12.569Z,71.83
2019-04-11T03:17:22.967Z,71.48
2019-04-11T03:20:34.935Z,70.68
2019-04-11T03:23:35.600Z,70.62
2019-04-11T03:26:43.482Z,70.31
2019-04-11T03:29:51.623Z,70.31
2019-04-11T03:33:55.141Z,70.42
2019-04-11T03:37:00.076Z,70.65
2019-04-11T03:39:32.742Z,70.47
2019-04-11T03:42:41.742Z,69.92
2019-04-11T03:45:48.992Z,70.28
2019-04-11T03:48:51.140Z,71.01
2019-04-11T03:51:47.694Z,70.92
2019-04-11T03:54:53.928Z,70.19
2019-04-11T03:58:01.207Z,70.35
2019-04-11T04:01:10.578Z,70.60
2019-04-11T04:04:15.474Z,70.38
2019-04-11T04:07:27.715Z,70.28
2019-04-11T04:10:36.146Z,70.27
2019-04-11T04:13:47.806Z,69.88
2019-04-11T04:17:28.332Z,70.02
2019-04-11T04:20:59.689Z,69.26
2019-04-11T04:24:27.754Z,69.64
2019-04-11T04:27:34.810Z,68.87
2019-04-11T04:30:42.783Z,68.54
2019-04-11T04:33:48.303Z,68.54
2019-04-11T04:36:55.674Z,69.68
2019-04-11T04:40:21.161Z,69.40
2019-04-11T04:43:10.506Z,69.73
2019-04-11T04:46:30.083Z,70.43
2019-04-11T04:49:24.162Z,71.73
2019-04-11T04:52:31.906Z,71.15
2019-04-11T04:55:37.667Z,71.60
2019-04-11T04:58:44.427Z,70.49
2019-04-11T05:01:53.288Z,71.14
2019-04-11T05:05:01.371Z,70.31
2019-04-11T05:08:08.409Z,70.30
2019-04-11T05:11:15.875Z,69.85
2019-04-11T05:14:23.177Z,70.09
2019-04-11T05:17:29.130Z,69.78
2019-04-11T05:20:34.898Z,69.43
2019-04-11T05:23:41.660Z,69.01
2019-04-11T05:26:48.128Z,68.75
2019-04-11T05:29:54.037Z,68.80
2019-04-11T05:32:59.834Z,68.31
2019-04-11T05:36:05.989Z,67.69
2019-04-11T05:39:13.089Z,67.50
2019-04-11T05:42:20.003Z,67.29
2019-04-11T05:45:26.713Z,66.94
2019-04-11T05:48:51.313Z,66.28
2019-04-11T05:52:06.140Z,66.49
2019-04-11T05:55:13.700Z,65.97
2019-04-11T05:58:19.694Z,66.06
2019-04-11T06:01:30.737Z,65.67
2019-04-11T06:04:41.012Z,65.08
2019-04-11T06:07:57.564Z,65.27
2019-04-11T06:11:24.218Z,64.44
2019-04-11T06:14:43.745Z,64.36
2019-04-11T06:17:50.303Z,64.36
2019-04-11T06:20:59.750Z,63.20
2019-04-11T06:24:24.458Z,63.20
2019-04-11T06:27:49.769Z,62.37
2019-04-11T06:31:24.829Z,62.14
2019-04-11T06:34:32.006Z,61.40
2019-04-11T06:38:11.888Z,60.63
2019-04-11T06:41:32.967Z,59.52
2019-04-11T06:44:50.593Z,59.00
2019-04-11T06:48:23.141Z,58.84
2019-04-11T06:51:39.857Z,57.23
2019-04-11T06:55:08.704Z,57.78
2019-04-11T06:58:25.513Z,56.71
2019-04-11T07:01:32.214Z,54.85
2019-04-11T07:05:04.435Z,54.42
2019-04-11T07:08:10.617Z,54.50
2019-04-11T07:11:17.798Z,53.35
2019-04-11T07:14:37.674Z,52.18
2019-04-11T07:18:01.147Z,51.94
2019-04-11T07:21:11.881Z,50.84
2019-04-11T07:24:45.357Z,50.29
2019-04-11T07:28:11.006Z,50.88
2019-04-11T07:31:41.309Z,50.10
2019-04-11T07:35:05.908Z,48.45
2019-04-11T07:38:16.256Z,47.52
2019-04-11T07:41:52.143Z,46.75
2019-04-11T07:45:00.956Z,46.93
2019-04-11T07:48:23.189Z,46.07
2019-04-11T07:51:30.378Z,46.08
2019-04-11T07:54:36.933Z,44.45
2019-04-11T07:57:48.987Z,43.38
2019-04-11T08:01:16.868Z,43.06
2019-04-11T08:04:57.660Z,43.83
2019-04-11T08:08:21.411Z,43.50
2019-04-11T08:11:31.776Z,43.80
2019-04-11T08:14:55.096Z,43.65
2019-04-11T08:18:04.336Z,44.83
2019-04-11T08:21:37.313Z,44.66
2019-04-11T08:32:55.625Z,41.01
2019-04-11T08:36:15.697Z,40.38
2019-04-11T08:39:29.092Z,40.21
2019-04-11T08:42:53.427Z,40.36
2019-04-11T08:46:16.806Z,39.16
2019-04-11T08:49:35.082Z,38.18
2019-04-11T08:53:02.831Z,38.10
2019-04-11T08:56:21.087Z,38.17
2019-04-11T09:00:02.168Z,38.67
2019-04-11T09:03:23.882Z,39.55
2019-04-11T09:06:35.379Z,40.58
2019-04-11T09:09:59.769Z,41.19
2019-04-11T09:13:44.004Z,40.74
2019-04-11T09:16:58.965Z,41.62
2019-04-11T09:20:27.640Z,40.86
2019-04-11T09:23:33.666Z,40.67
2019-04-11T09:26:58.252Z,39.79
2019-04-11T09:30:11.437Z,39.43
2019-04-11T09:33:33.112Z,39.58
2019-04-11T09:36:47.281Z,38.24
2019-04-11T09:40:12.764Z,38.15
2019-04-11T09:43:22.034Z,38.13
2019-04-11T09:46:40.766Z,37.48
2019-04-11T09:49:51.652Z,36.83
2019-04-11T09:52:58.048Z,37.51
2019-04-11T09:56:21.214Z,37.90
2019-04-11T09:59:49.727Z,38.50
2019-04-11T10:03:02.474Z,39.63
2019-04-11T10:06:25.072Z,39.28
2019-04-11T10:10:08.654Z,40.09
2019-04-11T10:13:42.819Z,41.03
2019-04-11T10:17:06.722Z,40.09
2019-04-11T10:20:16.111Z,40.37
2019-04-11T10:23:29.226Z,40.76
2019-04-11T10:26:40.258Z,41.06
2019-04-11T10:30:04.634Z,40.05
2019-04-11T10:33:18.550Z,39.91
2019-04-11T10:36:29.590Z,38.79
2019-04-11T10:39:59.869Z,39.24
2019-04-11T10:43:06.002Z,38.99
2019-04-11T10:46:47.007Z,37.53
2019-04-11T10:50:21.757Z,37.57
2019-04-11T10:53:27.934Z,35.33
2019-04-11T10:56:51.872Z,35.12
2019-04-11T10:59:58.647Z,34.50
2019-04-11T11:03:22.233Z,34.56
2019-04-11T11:06:29.612Z,33.87
2019-04-11T11:09:56.769Z,34.22
2019-04-11T11:13:21.556Z,33.76
2019-04-11T11:16:34.042Z,34.46
2019-04-11T11:20:11.895Z,34.28
2019-04-11T11:23:25.091Z,34.77
2019-04-11T11:26:35.651Z,36.01
2019-04-11T11:30:12.757Z,36.37
2019-04-11T11:33:20.464Z,37.08
2019-04-11T11:36:54.984Z,39.71
2019-04-11T11:40:20.345Z,40.58
2019-04-11T11:43:36.685Z,41.25
2019-04-11T11:47:03.384Z,41.00
2019-04-11T11:50:14.669Z,41.15
2019-04-11T11:53:27.322Z,41.59
2019-04-11T11:56:34.136Z,41.86
2019-04-11T11:59:45.705Z,41.09
2019-04-11T12:03:11.408Z,41.70
2019-04-11T12:06:22.231Z,41.58
2019-04-11T12:09:53.005Z,41.84
2019-04-11T12:13:30.418Z,41.94
2019-04-11T12:17:01.183Z,41.99
2019-04-11T12:20:16.006Z,41.68
2019-04-11T12:23:48.549Z,41.91
2019-04-11T12:27:13.180Z,42.19
2019-04-11T12:30:31.339Z,42.26
2019-04-11T12:33:49.943Z,42.50
2019-04-11T12:36:56.410Z,42.64
2019-04-11T12:40:42.201Z,42.63
2019-04-11T12:44:15.611Z,42.62
2019-04-11T12:47:26.853Z,42.86
2019-04-11T12:50:58.615Z,42.71
2019-04-11T12:54:04.839Z,43.00
2019-04-11T12:57:28.187Z,43.19
2019-04-11T13:00:55.828Z,42.95
2019-04-11T13:04:19.279Z,43.10
2019-04-11T13:07:51.368Z,43.22
2019-04-11T13:10:57.003Z,42.95
2019-04-11T13:14:13.004Z,43.35
2019-04-11T13:17:22.767Z,44.24
2019-04-11T13:21:02.776Z,43.96
2019-04-11T13:24:27.761Z,44.38
2019-04-11T13:27:37.787Z,44.30
2019-04-11T13:31:23.613Z,44.35
2019-04-11T13:34:28.369Z,44.87
2019-04-11T13:37:51.447Z,44.97
2019-04-11T13:41:15.923Z,45.16
2019-04-11T13:44:40.571Z,44.77
2019-04-11T13:48:04.189Z,44.42
2019-04-11T13:51:15.607Z,44.95
2019-04-11T13:54:39.008Z,44.72
2019-04-11T13:58:06.445Z,44.76
2019-04-11T14:01:16.531Z,44.46
2019-04-11T14:05:16.348Z,44.57
2019-04-11T14:09:08.816Z,44.18
2019-04-11T14:15:29.567Z,44.14
2019-04-11T14:18:47.668Z,44.13
2019-04-11T14:21:53.289Z,44.38
2019-04-11T14:25:16.332Z,43.81
2019-04-11T14:28:22.343Z,44.09
2019-04-11T14:32:02.505Z,44.38
2019-04-11T14:35:36.232Z,45.29
2019-04-11T14:38:47.971Z,50.20
2019-04-11T14:42:11.785Z,51.10
2019-04-11T14:45:36.588Z,51.22
2019-04-11T14:48:44.557Z,52.09
2019-04-11T14:52:07.967Z,52.08
2019-04-11T14:55:13.690Z,53.15
2019-04-11T14:58:39.816Z,53.62
2019-04-11T15:01:47.777Z,53.37
2019-04-11T15:05:15.249Z,52.79
2019-04-11T15:08:30.887Z,53.03
2019-04-11T15:11:54.117Z,53.72
2019-04-11T15:15:24.906Z,53.43
2019-04-11T15:18:32.553Z,51.59
2019-04-11T15:21:57.523Z,52.70
2019-04-11T15:25:10.318Z,52.64
2019-04-11T15:28:53.056Z,53.29
2019-04-11T15:32:15.928Z,53.43
2019-04-11T15:35:21.719Z,53.38
2019-04-11T15:38:52.569Z,53.04
2019-04-11T15:42:02.370Z,52.32
2019-04-11T15:45:29.488Z,51.91
2019-04-11T15:49:03.330Z,50.91
2019-04-11T15:52:15.505Z,50.57
2019-04-11T15:55:53.343Z,48.25
2019-04-11T15:59:05.644Z,45.69
2019-04-11T16:02:36.290Z,45.24
2019-04-11T16:06:01.585Z,45.62
2019-04-11T16:09:12.662Z,45.76
2019-04-11T16:12:26.700Z,46.25
2019-04-11T16:15:34.823Z,46.21
2019-04-11T16:18:58.191Z,45.75
2019-04-11T16:22:24.866Z,45.47
2019-04-11T16:25:30.399Z,44.82
2019-04-11T16:28:53.590Z,45.43
2019-04-11T16:32:02.079Z,45.01
2019-04-11T16:35:14.954Z,45.03
2019-04-11T16:38:21.877Z,45.58
2019-04-11T16:41:45.455Z,45.65
2019-04-11T16:45:13.241Z,45.43
2019-04-11T16:48:18.851Z,45.62
2019-04-11T16:51:30.769Z,45.92
2019-04-11T16:54:31.869Z,45.68
2019-04-11T16:57:37.480Z,45.57
2019-04-11T17:00:43.564Z,45.37
2019-04-11T17:03:55.182Z,45.74
2019-04-11T17:07:15.000Z,45.86
2019-04-11T17:10:42.719Z,45.64
2019-04-11T17:13:48.350Z,45.74
2019-04-11T17:16:54.454Z,45.48
2019-04-11T17:20:00.116Z,45.84
2019-04-11T17:23:05.901Z,46.23
2019-04-11T17:26:11.633Z,46.25
2019-04-11T17:29:17.250Z,46.11
2019-04-11T17:32:23.634Z,46.29
2019-04-11T17:35:31.698Z,46.75
2019-04-11T17:38:37.827Z,46.69
2019-04-11T17:41:43.520Z,47.05
2019-04-11T17:44:49.124Z,47.42
2019-04-11T17:47:57.110Z,47.43
2019-04-11T17:51:04.832Z,48.12
2019-04-11T17:54:09.386Z,48.12
2019-04-11T17:57:14.982Z,48.38
2019-04-11T18:00:30.080Z,48.90
2019-04-11T18:03:34.798Z,49.09
2019-04-11T18:06:40.411Z,48.67
2019-04-11T18:09:46.254Z,48.60
2019-04-11T18:12:55.747Z,48.89
2019-04-11T18:16:01.926Z,49.55
2019-04-11T18:19:09.790Z,49.46
2019-04-11T18:22:14.936Z,49.33
2019-04-11T18:25:21.475Z,48.88
2019-04-11T18:28:27.303Z,49.28
2019-04-11T18:31:33.086Z,49.30
2019-04-11T18:34:43.987Z,49.61
2019-04-11T18:37:49.621Z,49.74
2019-04-11T18:40:55.495Z,49.23
2019-04-11T18:44:01.175Z,49.41
2019-04-11T18:47:06.947Z,49.07
2019-04-11T18:50:12.790Z,49.14
2019-04-11T18:53:19.185Z,48.82
2019-04-11T18:56:25.094Z,48.78
2019-04-11T18:59:33.744Z,48.86
2019-04-11T19:02:40.212Z,48.90
2019-04-11T19:05:45.589Z,48.81
2019-04-11T19:08:51.177Z,48.72
2019-04-11T19:11:56.884Z,48.80
2019-04-11T19:15:02.515Z,49.08
2019-04-11T19:18:09.247Z,48.65
2019-04-11T19:21:14.872Z,48.60
2019-04-11T19:24:20.569Z,48.46
2019-04-11T19:27:26.539Z,48.94
2019-04-11T19:30:32.279Z,49.24
2019-04-11T19:33:39.982Z,51.35
2019-04-11T19:36:47.012Z,53.48
2019-04-11T19:39:52.814Z,54.49
2019-04-11T19:42:58.803Z,55.78
2019-04-11T19:46:04.741Z,56.57
2019-04-11T19:49:10.538Z,59.11
2019-04-11T19:52:16.293Z,60.37
2019-04-11T19:55:52.246Z,61.04
2019-04-11T19:58:59.821Z,62.31
2019-04-11T20:02:05.888Z,61.35
2019-04-11T20:05:15.136Z,60.21
2019-04-11T20:08:21.985Z,61.69
2019-04-11T20:11:29.418Z,63.36
2019-04-11T20:14:35.461Z,61.78
2019-04-11T20:17:44.592Z,62.37
2019-04-11T20:20:48.546Z,61.30
2019-04-11T20:23:54.274Z,61.35
2019-04-11T20:27:00.018Z,61.80
2019-04-11T20:30:06.056Z,62.46
2019-04-11T20:33:12.457Z,62.85
2019-04-11T20:36:18.172Z,63.81
2019-04-11T20:39:23.896Z,64.64
2019-04-11T20:42:29.727Z,63.68
2019-04-11T20:45:37.291Z,63.21
2019-04-11T20:48:43.513Z,63.59
2019-04-11T20:51:49.170Z,63.13
2019-04-11T20:54:54.895Z,62.94
2019-04-11T20:58:00.582Z,62.94
2019-04-11T21:01:06.432Z,62.51
2019-04-11T21:04:12.180Z,61.72
2019-04-11T21:07:17.934Z,61.72
2019-04-11T21:10:25.163Z,61.93
2019-04-11T21:13:30.871Z,62.10
2019-04-11T21:16:36.640Z,62.10
2019-04-11T21:19:42.410Z,61.25
2019-04-11T21:22:48.131Z,60.99
2019-04-11T21:25:53.814Z,60.65
2019-04-11T21:28:59.553Z,62.12
2019-04-11T21:32:05.263Z,61.35
2019-04-11T21:35:11.237Z,63.70
2019-04-11T21:38:16.976Z,63.45
2019-04-11T21:41:22.697Z,63.01
2019-04-11T21:44:28.382Z,62.49
2019-04-11T21:47:36.886Z,62.82
2019-04-11T21:50:41.590Z,62.96
2019-04-11T21:53:47.301Z,64.97
2019-04-11T21:56:53.013Z,63.76
2019-04-11T22:00:01.396Z,62.91
2019-04-11T22:03:08.246Z,62.56
2019-04-11T22:06:15.110Z,62.37
2019-04-11T22:09:20.863Z,62.46
2019-04-11T22:12:26.649Z,63.62
2019-04-11T22:15:32.430Z,63.48
2019-04-11T22:18:38.109Z,65.00
2019-04-11T22:21:45.439Z,64.44
2019-04-11T22:24:51.283Z,64.35
2019-04-11T22:27:57.002Z,65.66
2019-04-11T22:31:02.828Z,66.41
2019-04-11T22:34:13.822Z,66.86
2019-04-11T22:37:19.601Z,64.73
2019-04-11T22:40:25.291Z,65.37
2019-04-11T22:43:31.048Z,65.39
2019-04-11T22:46:37.809Z,66.05
2019-04-11T22:49:44.032Z,66.71
2019-04-11T22:52:49.740Z,69.09
2019-04-11T22:55:55.414Z,68.39
2019-04-11T22:59:01.134Z,66.84
2019-04-11T23:02:23.857Z,65.02
2019-04-11T23:05:29.663Z,63.89
2019-04-11T23:08:35.344Z,63.71
2019-04-11T23:11:44.492Z,63.30
2019-04-11T23:14:49.506Z,64.01
2019-04-11T23:17:55.244Z,64.53
2019-04-11T23:21:00.915Z,64.18
2019-04-11T23:24:11.725Z,64.01
2019-04-11T23:27:14.119Z,64.30
2019-04-11T23:30:19.812Z,65.27
2019-04-11T23:33:25.544Z,66.20
2019-04-11T23:36:31.218Z,64.51
2019-04-11T23:39:36.951Z,66.35
2019-04-11T23:42:42.682Z,64.89
2019-04-11T23:45:50.899Z,64.48
2019-04-11T23:48:55.860Z,64.11
2019-04-11T23:52:01.594Z,65.04
2019-04-11T23:55:07.825Z,65.14
2019-04-11T23:58:13.521Z,64.33
